createdAt,value
2023-04-02T00:00:12.042Z,3.03
2023-04-02T00:05:30.424Z,3.00
2023-04-02T00:10:40.457Z,3.10
2023-04-02T00:15:47.004Z,2.28
2023-04-02T00:20:55.738Z,2.60
2023-04-02T00:25:57.491Z,2.60
2023-04-02T00:30:59.861Z,2.28
2023-04-02T00:36:06.226Z,2.63
2023-04-02T00:41:07.988Z,2.30
2023-04-02T00:46:14.248Z,2.33
2023-04-02T00:51:19.876Z,2.40
2023-04-02T00:56:45.652Z,2.67
2023-04-02T01:01:54.168Z,2.85
2023-04-02T01:06:56.686Z,2.90
2023-04-02T01:12:13.646Z,2.85
2023-04-02T01:17:35.521Z,3.20
2023-04-02T01:22:55.872Z,3.03
2023-04-02T01:28:09.464Z,2.80
2023-04-02T01:33:12.233Z,3.42
2023-04-02T01:38:21.150Z,3.10
2023-04-02T01:43:32.505Z,3.97
2023-04-02T01:48:34.138Z,3.42
2023-04-02T01:53:35.778Z,3.13
2023-04-02T01:58:38.067Z,2.40
2023-04-02T02:03:41.493Z,2.60
2023-04-02T02:08:50.495Z,2.50
2023-04-02T02:13:57.585Z,2.50
2023-04-02T02:19:03.390Z,2.33
2023-04-02T02:24:27.169Z,2.40
2023-04-02T02:29:29.127Z,1.85
2023-04-02T02:34:45.889Z,1.92
2023-04-02T02:39:52.039Z,2.20
2023-04-02T02:44:54.530Z,2.00
2023-04-02T02:50:02.819Z,1.80
2023-04-02T02:55:17.976Z,1.77
2023-04-02T03:00:26.390Z,1.57
2023-04-02T03:05:29.950Z,1.52
2023-04-02T03:10:44.333Z,1.60
2023-04-02T03:16:11.843Z,1.40
2023-04-02T03:21:26.269Z,1.50
2023-04-02T03:26:35.246Z,1.27
2023-04-02T03:31:42.695Z,1.40
2023-04-02T03:36:56.789Z,1.30
2023-04-02T03:42:02.780Z,1.45
2023-04-02T03:47:14.639Z,1.60
2023-04-02T03:52:25.871Z,1.50
2023-04-02T03:57:39.002Z,1.35
2023-04-02T04:02:45.825Z,1.52
2023-04-02T04:07:51.972Z,2.00
2023-04-02T04:12:56.724Z,1.80
2023-04-02T04:18:05.844Z,1.85
2023-04-02T04:23:30.021Z,1.85
2023-04-02T04:28:43.296Z,2.20
2023-04-02T04:33:50.513Z,2.67
2023-04-02T04:39:05.677Z,2.78
2023-04-02T04:44:25.872Z,2.80
2023-04-02T04:49:55.933Z,2.30
2023-04-02T04:54:58.727Z,2.40
2023-04-02T05:00:30.808Z,2.78
2023-04-02T05:05:38.145Z,2.67
2023-04-02T05:10:49.783Z,2.20
2023-04-02T05:16:13.280Z,2.20
2023-04-02T05:21:24.068Z,2.65
2023-04-02T05:26:31.174Z,2.63
2023-04-02T05:31:49.894Z,2.42
2023-04-02T05:36:54.167Z,3.13
2023-04-02T05:42:08.298Z,2.87
2023-04-02T05:47:31.691Z,2.80
2023-04-02T05:52:37.564Z,3.08
2023-04-02T05:58:10.452Z,3.00
2023-04-02T06:03:44.672Z,2.60
2023-04-02T06:08:58.900Z,3.10
2023-04-02T06:14:01.174Z,2.90
2023-04-02T06:19:08.597Z,2.83
2023-04-02T06:24:11.809Z,3.60
2023-04-02T06:29:38.389Z,2.93
2023-04-02T06:34:42.358Z,2.88
2023-04-02T06:39:46.741Z,2.67
2023-04-02T06:44:51.283Z,2.58
2023-04-02T06:50:14.637Z,2.37
2023-04-02T06:55:45.130Z,2.70
2023-04-02T07:00:48.729Z,3.00
2023-04-02T07:05:59.255Z,2.30
2023-04-02T07:11:01.345Z,2.97
2023-04-02T07:16:04.444Z,2.73
2023-04-02T07:21:06.579Z,3.13
2023-04-02T07:26:11.799Z,2.77
2023-04-02T07:31:19.283Z,2.70
2023-04-02T07:36:23.216Z,2.40
2023-04-02T07:41:26.241Z,2.30
2023-04-02T07:46:27.916Z,2.67
2023-04-02T07:51:30.815Z,2.25
2023-04-02T07:56:32.393Z,2.70
2023-04-02T08:01:35.516Z,2.90
2023-04-02T08:06:37.152Z,2.72
2023-04-02T08:11:38.860Z,3.00
2023-04-02T08:16:48.524Z,2.77
2023-04-02T08:21:51.693Z,2.90
2023-04-02T08:26:53.853Z,2.73
2023-04-02T08:31:55.948Z,2.53
2023-04-02T08:36:58.349Z,2.78
2023-04-02T08:42:34.138Z,2.50
2023-04-02T08:47:41.183Z,2.60
2023-04-02T08:52:43.165Z,2.10
2023-04-02T08:57:55.114Z,2.43
2023-04-02T09:03:04.758Z,2.63
2023-04-02T09:08:16.586Z,1.80
2023-04-02T09:13:24.186Z,1.80
2023-04-02T09:18:28.769Z,2.67
2023-04-02T09:23:30.522Z,2.20
2023-04-02T09:28:32.298Z,2.03
2023-04-02T09:33:51.723Z,1.90
2023-04-02T09:39:23.472Z,1.90
2023-04-02T09:44:31.153Z,1.90
2023-04-02T09:49:35.452Z,1.93
2023-04-02T09:54:43.723Z,1.83
2023-04-02T09:59:45.360Z,2.30
2023-04-02T10:04:48.634Z,2.30
2023-04-02T10:09:58.648Z,2.30
2023-04-02T10:15:01.343Z,2.77
2023-04-02T10:20:11.443Z,2.03
2023-04-02T10:25:17.536Z,2.07
2023-04-02T10:30:24.995Z,3.40
2023-04-02T10:35:56.829Z,2.30
2023-04-02T10:41:03.176Z,1.97
2023-04-02T10:46:13.695Z,2.23
2023-04-02T10:51:47.607Z,2.00
2023-04-02T10:56:53.259Z,2.10
2023-04-02T11:01:57.656Z,2.30
2023-04-02T11:07:13.704Z,2.10
2023-04-02T11:12:46.053Z,2.00
2023-04-02T11:17:48.199Z,2.40
2023-04-02T11:23:06.451Z,2.20
2023-04-02T11:28:27.918Z,2.40
2023-04-02T11:33:39.025Z,2.43
2023-04-02T11:38:52.370Z,2.53
2023-04-02T11:44:00.306Z,2.70
2023-04-02T11:49:37.364Z,2.90
2023-04-02T11:54:39.349Z,2.57
2023-04-02T12:00:16.897Z,2.47
2023-04-02T12:05:27.236Z,2.90
2023-04-02T12:10:34.259Z,3.28
2023-04-02T12:15:57.673Z,2.50
2023-04-02T12:20:59.444Z,2.33
2023-04-02T12:26:04.014Z,2.40
2023-04-02T12:31:19.036Z,2.70
2023-04-02T12:36:22.919Z,2.40
2023-04-02T12:41:27.345Z,2.67
2023-04-02T12:46:31.183Z,2.63
2023-04-02T12:51:34.259Z,2.70
2023-04-02T12:56:35.923Z,2.50
2023-04-02T13:01:37.592Z,2.50
2023-04-02T13:06:41.224Z,2.22
2023-04-02T13:11:42.854Z,2.37
2023-04-02T13:16:44.553Z,2.20
2023-04-02T13:21:46.252Z,1.70
2023-04-02T13:26:49.684Z,2.10
2023-04-02T13:31:52.937Z,1.67
2023-04-02T13:36:55.182Z,1.90
2023-04-02T13:42:03.084Z,1.70
2023-04-02T13:47:04.834Z,2.73
2023-04-02T13:52:13.288Z,2.07
2023-04-02T13:57:15.550Z,2.00
2023-04-02T14:02:23.089Z,1.95
2023-04-02T14:07:39.798Z,1.77
2023-04-02T14:13:17.661Z,1.80
2023-04-02T14:18:43.638Z,1.90
2023-04-02T14:24:12.519Z,1.80
2023-04-02T14:29:19.466Z,2.05
2023-04-02T14:34:53.085Z,1.75
2023-04-02T14:40:39.712Z,2.03
2023-04-02T14:45:50.305Z,2.00
2023-04-02T14:50:56.686Z,2.27
2023-04-02T14:55:59.721Z,2.60
2023-04-02T15:01:15.334Z,2.22
2023-04-02T15:06:21.503Z,2.50
2023-04-02T15:11:23.119Z,2.58
2023-04-02T15:16:26.834Z,2.50
2023-04-02T15:21:49.716Z,2.47
2023-04-02T15:27:21.809Z,2.40
2023-04-02T15:32:32.219Z,2.10
2023-04-02T15:37:42.723Z,2.17
2023-04-02T15:42:52.139Z,2.20
2023-04-02T15:48:28.893Z,1.90
2023-04-02T15:53:59.532Z,1.90
2023-04-02T15:59:25.957Z,2.10
2023-04-02T16:04:36.928Z,2.20
2023-04-02T16:09:44.474Z,2.05
2023-04-02T16:14:48.157Z,2.22
2023-04-02T16:19:53.647Z,1.80
2023-04-02T16:25:07.404Z,1.60
2023-04-02T16:30:42.515Z,1.75
2023-04-02T16:36:04.562Z,2.10
2023-04-02T16:41:31.104Z,2.13
2023-04-02T16:47:03.448Z,2.10
2023-04-02T16:52:21.061Z,1.83
2023-04-02T16:57:49.240Z,1.90
2023-04-02T17:03:13.917Z,2.65
2023-04-02T17:08:25.981Z,1.90
2023-04-02T17:13:49.417Z,1.80
2023-04-02T17:18:53.085Z,1.80
2023-04-02T17:24:02.336Z,2.25
2023-04-02T17:29:08.759Z,1.83
2023-04-02T17:34:17.938Z,1.70
2023-04-02T17:39:23.040Z,3.97
2023-04-02T17:44:29.116Z,2.17
2023-04-02T17:50:04.787Z,2.60
2023-04-02T17:55:27.745Z,2.57
2023-04-02T18:00:51.129Z,2.90
2023-04-02T18:06:08.650Z,2.97
2023-04-02T18:11:13.286Z,2.85
2023-04-02T18:16:30.056Z,2.72
2023-04-02T18:21:39.309Z,3.03
2023-04-02T18:26:53.647Z,2.80
2023-04-02T18:32:23.139Z,2.40
2023-04-02T18:37:47.226Z,2.45
2023-04-02T18:42:51.780Z,2.63
2023-04-02T18:47:58.168Z,3.38
2023-04-02T18:53:06.193Z,3.10
2023-04-02T18:58:15.109Z,2.70
2023-04-02T19:03:26.881Z,2.60
2023-04-02T19:08:47.817Z,2.58
2023-04-02T19:13:51.375Z,2.42
2023-04-02T19:19:07.419Z,2.55
2023-04-02T19:24:27.750Z,2.55
2023-04-02T19:29:42.096Z,2.42
2023-04-02T19:35:17.153Z,3.20
2023-04-02T19:40:25.049Z,2.75
2023-04-02T19:45:26.624Z,2.90
2023-04-02T19:50:28.790Z,2.78
2023-04-02T19:55:30.533Z,2.75
2023-04-02T20:00:32.876Z,2.70
2023-04-02T20:05:34.724Z,2.63
2023-04-02T20:10:36.718Z,2.33
2023-04-02T20:15:40.388Z,2.58
2023-04-02T20:20:45.780Z,2.47
2023-04-02T20:25:53.195Z,2.63
2023-04-02T20:30:55.724Z,2.60
2023-04-02T20:36:03.456Z,2.60
2023-04-02T20:41:07.234Z,2.45
2023-04-02T20:46:10.807Z,2.22
2023-04-02T20:51:14.833Z,1.88
2023-04-02T20:56:17.359Z,2.30
2023-04-02T21:01:27.220Z,1.90
2023-04-02T21:06:31.467Z,1.70
2023-04-02T21:11:33.454Z,2.00
2023-04-02T21:16:35.513Z,1.80
2023-04-02T21:21:38.603Z,1.63
2023-04-02T21:26:41.648Z,1.60
2023-04-02T21:31:43.417Z,1.73
2023-04-02T21:36:47.097Z,1.60
2023-04-02T21:41:51.020Z,1.40
2023-04-02T21:46:54.160Z,1.40
2023-04-02T21:51:56.097Z,1.50
2023-04-02T21:56:57.993Z,1.58
2023-04-02T22:01:59.739Z,1.73
2023-04-02T22:07:01.472Z,1.67
2023-04-02T22:12:03.278Z,1.70
2023-04-02T22:17:05.089Z,1.70
2023-04-02T22:22:07.182Z,1.93
2023-04-02T22:27:09.040Z,1.93
2023-04-02T22:32:10.629Z,1.40
2023-04-02T22:37:12.379Z,1.40
2023-04-02T22:42:13.948Z,1.40
2023-04-02T22:47:15.785Z,1.83
2023-04-02T22:52:17.366Z,1.38
2023-04-02T22:57:18.995Z,1.77
2023-04-02T23:02:20.784Z,1.50
2023-04-02T23:07:22.614Z,1.43
2023-04-02T23:12:24.224Z,1.50
2023-04-02T23:17:25.883Z,1.27
2023-04-02T23:22:27.483Z,1.73
2023-04-02T23:27:29.085Z,1.73
2023-04-02T23:32:30.811Z,1.85
2023-04-02T23:37:32.585Z,1.53
2023-04-02T23:42:34.204Z,1.83
2023-04-02T23:47:35.870Z,1.60
2023-04-02T23:52:37.564Z,1.60
2023-04-02T23:57:39.145Z,1.80
